sensor_id;sensor_type;location;lat;lon;timestamp;pressure;altitude;pressure_sealevel;temperature;humidity
73453;BME280;61687;56.232;43.854;2023-06-26T00:01:29;100654.63;;;12.84;73.83
73453;BME280;61687;56.232;43.854;2023-06-26T00:03:58;100656.56;;;12.83;74.05
73453;BME280;61687;56.232;43.854;2023-06-26T00:06:25;100647.91;;;12.81;73.91
73453;BME280;61687;56.232;43.854;2023-06-26T00:08:55;100648.66;;;12.78;73.97
73453;BME280;61687;56.232;43.854;2023-06-26T00:11:22;100654.13;;;12.74;74.11
73453;BME280;61687;56.232;43.854;2023-06-26T00:13:48;100652.91;;;12.72;74.20
73453;BME280;61687;56.232;43.854;2023-06-26T00:16:14;100657.59;;;12.71;74.35
73453;BME280;61687;56.232;43.854;2023-06-26T00:18:40;100659.50;;;12.67;74.30
73453;BME280;61687;56.232;43.854;2023-06-26T00:21:06;100653.25;;;12.67;74.32
73453;BME280;61687;56.232;43.854;2023-06-26T00:23:31;100647.75;;;12.67;74.41
73453;BME280;61687;56.232;43.854;2023-06-26T00:26:03;100654.00;;;12.67;74.25
73453;BME280;61687;56.232;43.854;2023-06-26T00:28:29;100650.44;;;12.63;74.15
73453;BME280;61687;56.232;43.854;2023-06-26T00:30:56;100646.47;;;12.60;74.39
73453;BME280;61687;56.232;43.854;2023-06-26T00:33:22;100648.44;;;12.60;74.48
73453;BME280;61687;56.232;43.854;2023-06-26T00:35:49;100647.69;;;12.63;74.48
73453;BME280;61687;56.232;43.854;2023-06-26T00:38:15;100654.34;;;12.62;74.36
73453;BME280;61687;56.232;43.854;2023-06-26T00:40:42;100652.75;;;12.61;74.46
73453;BME280;61687;56.232;43.854;2023-06-26T00:43:09;100658.25;;;12.61;74.43
73453;BME280;61687;56.232;43.854;2023-06-26T00:45:35;100653.13;;;12.59;74.44
73453;BME280;61687;56.232;43.854;2023-06-26T00:48:01;100658.22;;;12.57;74.60
73453;BME280;61687;56.232;43.854;2023-06-26T00:50:28;100656.22;;;12.54;74.74
73453;BME280;61687;56.232;43.854;2023-06-26T00:52:55;100663.28;;;12.55;74.68
73453;BME280;61687;56.232;43.854;2023-06-26T00:55:26;100653.84;;;12.53;74.66
73453;BME280;61687;56.232;43.854;2023-06-26T00:57:54;100660.13;;;12.53;74.73
73453;BME280;61687;56.232;43.854;2023-06-26T01:00:20;100651.13;;;12.56;74.79
73453;BME280;61687;56.232;43.854;2023-06-26T01:02:46;100652.34;;;12.59;74.81
73453;BME280;61687;56.232;43.854;2023-06-26T01:05:13;100660.22;;;12.60;74.92
73453;BME280;61687;56.232;43.854;2023-06-26T01:07:48;100650.78;;;12.62;74.60
73453;BME280;61687;56.232;43.854;2023-06-26T01:10:15;100653.19;;;12.63;74.75
73453;BME280;61687;56.232;43.854;2023-06-26T01:12:41;100660.31;;;12.68;74.74
73453;BME280;61687;56.232;43.854;2023-06-26T01:15:08;100650.91;;;12.69;74.77
73453;BME280;61687;56.232;43.854;2023-06-26T01:17:36;100644.66;;;12.72;74.59
73453;BME280;61687;56.232;43.854;2023-06-26T01:20:04;100648.56;;;12.71;74.67
73453;BME280;61687;56.232;43.854;2023-06-26T01:22:58;100646.19;;;12.69;74.92
73453;BME280;61687;56.232;43.854;2023-06-26T01:25:51;100650.06;;;12.65;75.27
73453;BME280;61687;56.232;43.854;2023-06-26T01:28:20;100645.75;;;12.67;75.10
73453;BME280;61687;56.232;43.854;2023-06-26T01:30:47;100650.16;;;12.72;75.05
73453;BME280;61687;56.232;43.854;2023-06-26T01:33:13;100651.38;;;12.74;75.00
73453;BME280;61687;56.232;43.854;2023-06-26T01:35:40;100658.81;;;12.74;75.46
73453;BME280;61687;56.232;43.854;2023-06-26T01:38:17;100657.31;;;12.80;75.36
73453;BME280;61687;56.232;43.854;2023-06-26T01:40:44;100657.41;;;12.87;75.15
73453;BME280;61687;56.232;43.854;2023-06-26T01:45:59;100658.31;;;12.99;75.03
73453;BME280;61687;56.232;43.854;2023-06-26T01:48:40;100661.13;;;13.02;74.82
73453;BME280;61687;56.232;43.854;2023-06-26T01:51:10;100654.91;;;13.09;74.71
73453;BME280;61687;56.232;43.854;2023-06-26T01:53:41;100661.59;;;13.12;74.83
73453;BME280;61687;56.232;43.854;2023-06-26T01:56:16;100666.78;;;13.17;74.80
73453;BME280;61687;56.232;43.854;2023-06-26T01:58:46;100671.19;;;13.25;74.69
73453;BME280;61687;56.232;43.854;2023-06-26T02:01:18;100664.19;;;13.31;74.54
73453;BME280;61687;56.232;43.854;2023-06-26T02:03:46;100660.28;;;13.36;74.59
73453;BME280;61687;56.232;43.854;2023-06-26T02:06:11;100666.25;;;13.42;74.55
73453;BME280;61687;56.232;43.854;2023-06-26T02:08:37;100668.28;;;13.45;74.70
73453;BME280;61687;56.232;43.854;2023-06-26T02:11:03;100673.84;;;13.49;74.57
73453;BME280;61687;56.232;43.854;2023-06-26T02:13:29;100667.56;;;13.55;74.59
73453;BME280;61687;56.232;43.854;2023-06-26T02:15:55;100666.09;;;13.62;74.45
73453;BME280;61687;56.232;43.854;2023-06-26T02:18:21;100666.50;;;13.67;74.22
73453;BME280;61687;56.232;43.854;2023-06-26T02:20:49;100659.09;;;13.71;74.12
73453;BME280;61687;56.232;43.854;2023-06-26T02:23:14;100652.44;;;13.80;74.07
73453;BME280;61687;56.232;43.854;2023-06-26T02:25:40;100653.31;;;13.87;74.20
73453;BME280;61687;56.232;43.854;2023-06-26T02:28:09;100654.53;;;13.94;73.90
73453;BME280;61687;56.232;43.854;2023-06-26T02:30:35;100648.66;;;13.99;73.76
73453;BME280;61687;56.232;43.854;2023-06-26T02:33:01;100656.19;;;14.06;73.49
73453;BME280;61687;56.232;43.854;2023-06-26T02:35:27;100661.38;;;14.14;73.59
73453;BME280;61687;56.232;43.854;2023-06-26T02:37:53;100650.38;;;14.22;73.27
73453;BME280;61687;56.232;43.854;2023-06-26T02:40:19;100652.78;;;14.30;73.20
73453;BME280;61687;56.232;43.854;2023-06-26T02:42:45;100651.69;;;14.39;72.88
73453;BME280;61687;56.232;43.854;2023-06-26T02:45:11;100658.00;;;14.43;72.73
73453;BME280;61687;56.232;43.854;2023-06-26T02:47:37;100653.28;;;14.47;72.65
73453;BME280;61687;56.232;43.854;2023-06-26T02:50:07;100653.31;;;14.51;72.52
73453;BME280;61687;56.232;43.854;2023-06-26T02:52:49;100652.56;;;14.61;72.44
73453;BME280;61687;56.232;43.854;2023-06-26T02:55:20;100659.72;;;14.69;72.17
73453;BME280;61687;56.232;43.854;2023-06-26T02:57:47;100658.56;;;14.74;72.27
73453;BME280;61687;56.232;43.854;2023-06-26T03:00:13;100651.94;;;14.86;71.76
73453;BME280;61687;56.232;43.854;2023-06-26T03:02:45;100654.31;;;14.98;71.59
73453;BME280;61687;56.232;43.854;2023-06-26T03:05:14;100656.34;;;15.09;71.37
73453;BME280;61687;56.232;43.854;2023-06-26T03:07:40;100653.59;;;15.20;70.99
73453;BME280;61687;56.232;43.854;2023-06-26T03:10:07;100657.56;;;15.29;70.96
73453;BME280;61687;56.232;43.854;2023-06-26T03:12:33;100661.13;;;15.41;70.65
73453;BME280;61687;56.232;43.854;2023-06-26T03:14:59;100665.09;;;15.51;70.30
73453;BME280;61687;56.232;43.854;2023-06-26T03:17:26;100665.50;;;15.60;70.19
73453;BME280;61687;56.232;43.854;2023-06-26T03:19:56;100660.38;;;15.69;69.80
73453;BME280;61687;56.232;43.854;2023-06-26T03:22:27;100661.94;;;15.81;69.61
73453;BME280;61687;56.232;43.854;2023-06-26T03:24:53;100666.31;;;15.93;69.46
73453;BME280;61687;56.232;43.854;2023-06-26T03:27:19;100669.88;;;16.01;69.19
73453;BME280;61687;56.232;43.854;2023-06-26T03:29:46;100664.72;;;16.10;69.15
73453;BME280;61687;56.232;43.854;2023-06-26T03:32:12;100661.97;;;16.17;68.91
73453;BME280;61687;56.232;43.854;2023-06-26T03:34:38;100664.69;;;16.25;68.96
73453;BME280;61687;56.232;43.854;2023-06-26T03:37:05;100661.53;;;16.34;68.74
73453;BME280;61687;56.232;43.854;2023-06-26T03:39:31;100667.84;;;16.45;68.56
73453;BME280;61687;56.232;43.854;2023-06-26T03:41:57;100663.44;;;16.55;68.31
73453;BME280;61687;56.232;43.854;2023-06-26T03:44:26;100658.28;;;16.68;68.04
73453;BME280;61687;56.232;43.854;2023-06-26T03:46:52;100665.34;;;16.76;67.78
73453;BME280;61687;56.232;43.854;2023-06-26T03:49:19;100662.53;;;16.83;67.55
73453;BME280;61687;56.232;43.854;2023-06-26T03:51:45;100662.53;;;16.91;67.48
73453;BME280;61687;56.232;43.854;2023-06-26T03:54:11;100666.03;;;17.02;67.60
73453;BME280;61687;56.232;43.854;2023-06-26T03:56:37;100666.41;;;17.08;67.12
73453;BME280;61687;56.232;43.854;2023-06-26T03:59:05;100667.56;;;17.17;66.82
73453;BME280;61687;56.232;43.854;2023-06-26T04:01:31;100665.09;;;17.30;66.47
73453;BME280;61687;56.232;43.854;2023-06-26T04:03:57;100665.03;;;17.41;66.17
73453;BME280;61687;56.232;43.854;2023-06-26T04:06:23;100673.66;;;17.54;65.81
73453;BME280;61687;56.232;43.854;2023-06-26T04:08:48;100668.81;;;17.66;65.67
73453;BME280;61687;56.232;43.854;2023-06-26T04:11:15;100672.63;;;17.83;65.24
73453;BME280;61687;56.232;43.854;2023-06-26T04:13:41;100671.72;;;17.97;64.34
73453;BME280;61687;56.232;43.854;2023-06-26T04:16:07;100670.84;;;18.11;62.58
73453;BME280;61687;56.232;43.854;2023-06-26T04:18:32;100669.53;;;18.23;61.50
73453;BME280;61687;56.232;43.854;2023-06-26T04:21:11;100673.75;;;18.35;61.04
73453;BME280;61687;56.232;43.854;2023-06-26T04:23:39;100672.06;;;18.44;60.40
73453;BME280;61687;56.232;43.854;2023-06-26T04:26:05;100679.13;;;18.53;59.87
73453;BME280;61687;56.232;43.854;2023-06-26T04:28:35;100677.06;;;18.61;60.16
73453;BME280;61687;56.232;43.854;2023-06-26T04:31:01;100673.84;;;18.66;60.16
73453;BME280;61687;56.232;43.854;2023-06-26T04:33:29;100667.41;;;18.72;59.87
73453;BME280;61687;56.232;43.854;2023-06-26T04:35:54;100674.09;;;18.75;59.67
73453;BME280;61687;56.232;43.854;2023-06-26T04:38:20;100673.66;;;18.80;59.49
73453;BME280;61687;56.232;43.854;2023-06-26T04:40:47;100670.78;;;18.87;58.79
73453;BME280;61687;56.232;43.854;2023-06-26T04:43:13;100669.13;;;18.94;58.26
73453;BME280;61687;56.232;43.854;2023-06-26T04:45:39;100677.41;;;19.01;57.52
73453;BME280;61687;56.232;43.854;2023-06-26T04:48:05;100675.28;;;19.09;58.21
73453;BME280;61687;56.232;43.854;2023-06-26T04:50:34;100671.28;;;19.13;56.97
73453;BME280;61687;56.232;43.854;2023-06-26T04:53:01;100679.56;;;19.17;56.26
73453;BME280;61687;56.232;43.854;2023-06-26T04:55:27;100674.69;;;19.25;56.52
73453;BME280;61687;56.232;43.854;2023-06-26T04:57:53;100680.50;;;19.34;55.81
73453;BME280;61687;56.232;43.854;2023-06-26T05:00:19;100680.00;;;19.43;55.32
73453;BME280;61687;56.232;43.854;2023-06-26T05:02:45;100680.31;;;19.49;55.57
73453;BME280;61687;56.232;43.854;2023-06-26T05:05:11;100681.03;;;19.53;54.42
73453;BME280;61687;56.232;43.854;2023-06-26T05:07:37;100681.00;;;19.56;54.38
73453;BME280;61687;56.232;43.854;2023-06-26T05:10:04;100681.72;;;19.61;54.32
73453;BME280;61687;56.232;43.854;2023-06-26T05:12:30;100693.91;;;19.67;53.11
73453;BME280;61687;56.232;43.854;2023-06-26T05:14:55;100691.09;;;19.70;52.71
73453;BME280;61687;56.232;43.854;2023-06-26T05:17:21;100695.41;;;19.75;52.11
73453;BME280;61687;56.232;43.854;2023-06-26T05:19:47;100693.75;;;19.78;52.60
73453;BME280;61687;56.232;43.854;2023-06-26T05:22:13;100697.25;;;19.82;52.08
73453;BME280;61687;56.232;43.854;2023-06-26T05:24:40;100694.00;;;19.87;52.11
73453;BME280;61687;56.232;43.854;2023-06-26T05:27:06;100699.13;;;19.92;52.54
73453;BME280;61687;56.232;43.854;2023-06-26T05:29:33;100697.47;;;19.95;52.24
73453;BME280;61687;56.232;43.854;2023-06-26T05:31:59;100695.84;;;19.97;51.91
73453;BME280;61687;56.232;43.854;2023-06-26T05:34:26;100697.78;;;20.00;52.24
73453;BME280;61687;56.232;43.854;2023-06-26T05:36:58;100702.06;;;20.05;52.43
73453;BME280;61687;56.232;43.854;2023-06-26T05:39:25;100698.38;;;20.12;52.18
73453;BME280;61687;56.232;43.854;2023-06-26T05:41:51;100693.47;;;20.20;52.42
73453;BME280;61687;56.232;43.854;2023-06-26T05:44:17;100689.41;;;20.24;51.74
73453;BME280;61687;56.232;43.854;2023-06-26T05:46:45;100687.38;;;20.28;51.88
73453;BME280;61687;56.232;43.854;2023-06-26T05:49:11;100684.50;;;20.32;51.84
73453;BME280;61687;56.232;43.854;2023-06-26T05:51:37;100684.00;;;20.37;51.24
73453;BME280;61687;56.232;43.854;2023-06-26T05:54:03;100694.56;;;20.46;51.79
73453;BME280;61687;56.232;43.854;2023-06-26T05:56:30;100694.00;;;20.55;50.94
73453;BME280;61687;56.232;43.854;2023-06-26T05:58:56;100677.75;;;20.53;50.60
73453;BME280;61687;56.232;43.854;2023-06-26T06:01:22;100688.31;;;20.62;51.46
73453;BME280;61687;56.232;43.854;2023-06-26T06:03:50;100679.00;;;20.69;51.05
73453;BME280;61687;56.232;43.854;2023-06-26T06:06:15;100680.88;;;20.76;51.38
73453;BME280;61687;56.232;43.854;2023-06-26T06:08:41;100683.97;;;20.81;50.97
73453;BME280;61687;56.232;43.854;2023-06-26T06:11:07;100681.03;;;20.88;51.31
73453;BME280;61687;56.232;43.854;2023-06-26T06:13:33;100676.97;;;20.93;50.60
73453;BME280;61687;56.232;43.854;2023-06-26T06:15:59;100679.16;;;21.02;50.12
73453;BME280;61687;56.232;43.854;2023-06-26T06:18:26;100678.66;;;21.07;50.47
73453;BME280;61687;56.232;43.854;2023-06-26T06:20:51;100677.38;;;21.12;50.49
73453;BME280;61687;56.232;43.854;2023-06-26T06:23:18;100676.50;;;21.15;50.18
73453;BME280;61687;56.232;43.854;2023-06-26T06:25:44;100676.06;;;21.16;48.47
73453;BME280;61687;56.232;43.854;2023-06-26T06:28:10;100676.69;;;21.24;49.33
73453;BME280;61687;56.232;43.854;2023-06-26T06:30:36;100676.34;;;21.22;47.30
73453;BME280;61687;56.232;43.854;2023-06-26T06:33:02;100681.94;;;21.22;47.37
73453;BME280;61687;56.232;43.854;2023-06-26T06:35:28;100683.41;;;21.27;48.09
73453;BME280;61687;56.232;43.854;2023-06-26T06:37:54;100679.25;;;21.35;48.45
73453;BME280;61687;56.232;43.854;2023-06-26T06:40:20;100677.78;;;21.47;48.87
73453;BME280;61687;56.232;43.854;2023-06-26T06:42:48;100682.28;;;21.57;48.76
73453;BME280;61687;56.232;43.854;2023-06-26T06:45:13;100674.19;;;21.63;47.75
73453;BME280;61687;56.232;43.854;2023-06-26T06:47:39;100679.63;;;21.70;47.58
73453;BME280;61687;56.232;43.854;2023-06-26T06:50:05;100667.97;;;21.76;45.61
73453;BME280;61687;56.232;43.854;2023-06-26T06:52:38;100665.41;;;21.81;46.32
73453;BME280;61687;56.232;43.854;2023-06-26T06:55:06;100671.41;;;21.96;46.31
73453;BME280;61687;56.232;43.854;2023-06-26T06:57:35;100668.41;;;22.20;45.27
73453;BME280;61687;56.232;43.854;2023-06-26T07:00:08;100666.25;;;22.41;45.00
73453;BME280;61687;56.232;43.854;2023-06-26T07:02:36;100665.56;;;22.66;45.12
73453;BME280;61687;56.232;43.854;2023-06-26T07:05:03;100658.59;;;22.87;44.98
73453;BME280;61687;56.232;43.854;2023-06-26T07:07:31;100662.97;;;23.14;44.01
73453;BME280;61687;56.232;43.854;2023-06-26T07:10:02;100663.78;;;23.41;44.03
73453;BME280;61687;56.232;43.854;2023-06-26T07:12:29;100661.38;;;23.65;43.49
73453;BME280;61687;56.232;43.854;2023-06-26T07:14:56;100665.16;;;23.84;42.14
73453;BME280;61687;56.232;43.854;2023-06-26T07:17:22;100670.38;;;23.95;41.94
73453;BME280;61687;56.232;43.854;2023-06-26T07:19:49;100660.28;;;24.11;42.62
73453;BME280;61687;56.232;43.854;2023-06-26T07:22:15;100649.03;;;24.24;40.92
73453;BME280;61687;56.232;43.854;2023-06-26T07:24:41;100662.78;;;24.09;39.61
73453;BME280;61687;56.232;43.854;2023-06-26T07:27:07;100667.69;;;23.92;40.20
73453;BME280;61687;56.232;43.854;2023-06-26T07:29:33;100664.88;;;24.05;41.21
73453;BME280;61687;56.232;43.854;2023-06-26T07:31:59;100660.03;;;24.18;41.54
73453;BME280;61687;56.232;43.854;2023-06-26T07:34:25;100654.44;;;24.18;39.27
73453;BME280;61687;56.232;43.854;2023-06-26T07:36:51;100657.81;;;24.13;39.20
73453;BME280;61687;56.232;43.854;2023-06-26T07:39:16;100661.19;;;23.95;38.93
73453;BME280;61687;56.232;43.854;2023-06-26T07:41:42;100660.03;;;23.70;39.06
73453;BME280;61687;56.232;43.854;2023-06-26T07:44:08;100654.03;;;23.33;38.81
73453;BME280;61687;56.232;43.854;2023-06-26T07:46:34;100657.25;;;23.05;40.66
73453;BME280;61687;56.232;43.854;2023-06-26T07:49:00;100663.50;;;22.83;40.72
73453;BME280;61687;56.232;43.854;2023-06-26T07:51:26;100667.53;;;22.82;41.46
73453;BME280;61687;56.232;43.854;2023-06-26T07:53:52;100662.03;;;22.92;41.78
73453;BME280;61687;56.232;43.854;2023-06-26T07:56:18;100669.09;;;22.96;42.13
73453;BME280;61687;56.232;43.854;2023-06-26T07:58:43;100662.47;;;22.90;41.46
73453;BME280;61687;56.232;43.854;2023-06-26T08:01:09;100662.94;;;22.89;39.58
73453;BME280;61687;56.232;43.854;2023-06-26T08:03:36;100663.63;;;22.93;40.61
73453;BME280;61687;56.232;43.854;2023-06-26T08:06:02;100657.69;;;23.16;39.90
73453;BME280;61687;56.232;43.854;2023-06-26T08:08:29;100656.16;;;23.41;39.22
73453;BME280;61687;56.232;43.854;2023-06-26T08:10:54;100661.00;;;23.76;40.41
73453;BME280;61687;56.232;43.854;2023-06-26T08:13:20;100659.81;;;24.12;39.65
73453;BME280;61687;56.232;43.854;2023-06-26T08:15:46;100654.09;;;24.38;38.06
73453;BME280;61687;56.232;43.854;2023-06-26T08:18:12;100650.22;;;24.36;38.63
73453;BME280;61687;56.232;43.854;2023-06-26T08:20:38;100654.91;;;24.39;37.58
73453;BME280;61687;56.232;43.854;2023-06-26T08:23:04;100645.66;;;24.51;38.01
73453;BME280;61687;56.232;43.854;2023-06-26T08:25:30;100640.53;;;24.59;38.17
73453;BME280;61687;56.232;43.854;2023-06-26T08:27:56;100641.22;;;24.63;38.13
73453;BME280;61687;56.232;43.854;2023-06-26T08:30:22;100632.94;;;24.37;37.33
73453;BME280;61687;56.232;43.854;2023-06-26T08:32:48;100639.44;;;23.77;36.92
73453;BME280;61687;56.232;43.854;2023-06-26T08:35:16;100640.38;;;23.61;38.44
73453;BME280;61687;56.232;43.854;2023-06-26T08:37:42;100635.22;;;23.59;38.33
73453;BME280;61687;56.232;43.854;2023-06-26T08:40:08;100646.19;;;23.40;38.25
73453;BME280;61687;56.232;43.854;2023-06-26T08:42:34;100647.78;;;23.28;38.84
73453;BME280;61687;56.232;43.854;2023-06-26T08:45:00;100638.47;;;23.06;39.43
73453;BME280;61687;56.232;43.854;2023-06-26T08:47:26;100635.00;;;23.14;39.66
73453;BME280;61687;56.232;43.854;2023-06-26T08:50:01;100634.66;;;23.12;39.84
73453;BME280;61687;56.232;43.854;2023-06-26T08:52:40;100638.94;;;23.04;39.64
73453;BME280;61687;56.232;43.854;2023-06-26T08:55:09;100645.94;;;22.96;39.48
73453;BME280;61687;56.232;43.854;2023-06-26T08:57:36;100638.22;;;22.87;39.93
73453;BME280;61687;56.232;43.854;2023-06-26T09:00:04;100643.28;;;22.92;39.88
73453;BME280;61687;56.232;43.854;2023-06-26T09:02:30;100631.78;;;23.03;39.59
73453;BME280;61687;56.232;43.854;2023-06-26T09:04:57;100638.94;;;23.30;40.31
73453;BME280;61687;56.232;43.854;2023-06-26T09:07:23;100631.09;;;23.51;38.75
73453;BME280;61687;56.232;43.854;2023-06-26T09:09:49;100625.53;;;23.73;37.79
73453;BME280;61687;56.232;43.854;2023-06-26T09:12:15;100639.06;;;23.87;38.97
73453;BME280;61687;56.232;43.854;2023-06-26T09:14:41;100630.34;;;23.85;36.94
73453;BME280;61687;56.232;43.854;2023-06-26T09:17:07;100628.44;;;23.82;37.68
73453;BME280;61687;56.232;43.854;2023-06-26T09:19:37;100626.59;;;24.01;37.79
73453;BME280;61687;56.232;43.854;2023-06-26T09:22:04;100629.28;;;24.27;37.24
73453;BME280;61687;56.232;43.854;2023-06-26T09:24:30;100623.69;;;24.50;36.04
73453;BME280;61687;56.232;43.854;2023-06-26T09:26:57;100623.59;;;24.63;35.68
73453;BME280;61687;56.232;43.854;2023-06-26T09:29:23;100627.06;;;24.67;35.99
73453;BME280;61687;56.232;43.854;2023-06-26T09:31:51;100625.03;;;24.67;35.86
73453;BME280;61687;56.232;43.854;2023-06-26T09:34:17;100628.75;;;24.86;36.38
73453;BME280;61687;56.232;43.854;2023-06-26T09:36:46;100621.56;;;24.85;36.82
73453;BME280;61687;56.232;43.854;2023-06-26T09:39:13;100615.66;;;24.61;34.76
73453;BME280;61687;56.232;43.854;2023-06-26T09:41:43;100617.03;;;24.34;34.53
73453;BME280;61687;56.232;43.854;2023-06-26T09:44:11;100612.34;;;24.53;35.02
73453;BME280;61687;56.232;43.854;2023-06-26T09:46:41;100609.88;;;24.55;33.74
73453;BME280;61687;56.232;43.854;2023-06-26T09:49:09;100612.34;;;24.53;34.64
73453;BME280;61687;56.232;43.854;2023-06-26T09:51:40;100611.56;;;24.53;34.61
73453;BME280;61687;56.232;43.854;2023-06-26T09:54:07;100618.50;;;24.39;35.40
73453;BME280;61687;56.232;43.854;2023-06-26T09:56:34;100617.63;;;24.07;34.77
73453;BME280;61687;56.232;43.854;2023-06-26T09:59:02;100615.16;;;23.73;34.96
73453;BME280;61687;56.232;43.854;2023-06-26T10:01:30;100613.47;;;23.63;35.88
73453;BME280;61687;56.232;43.854;2023-06-26T10:03:57;100608.09;;;23.69;34.83
73453;BME280;61687;56.232;43.854;2023-06-26T10:06:37;100606.97;;;23.79;35.21
73453;BME280;61687;56.232;43.854;2023-06-26T10:09:04;100600.09;;;23.93;33.45
73453;BME280;61687;56.232;43.854;2023-06-26T10:11:47;100610.22;;;24.13;34.48
73453;BME280;61687;56.232;43.854;2023-06-26T10:14:16;100605.13;;;24.43;36.35
73453;BME280;61687;56.232;43.854;2023-06-26T10:16:43;100603.00;;;24.79;34.22
73453;BME280;61687;56.232;43.854;2023-06-26T10:19:10;100602.84;;;25.23;32.48
73453;BME280;61687;56.232;43.854;2023-06-26T10:21:38;100598.44;;;25.72;32.64
73453;BME280;61687;56.232;43.854;2023-06-26T10:24:06;100605.81;;;26.78;31.07
73453;BME280;61687;56.232;43.854;2023-06-26T10:26:35;100590.22;;;28.38;28.04
73453;BME280;61687;56.232;43.854;2023-06-26T10:29:04;100596.47;;;30.38;26.29
73453;BME280;61687;56.232;43.854;2023-06-26T10:31:33;100582.22;;;32.30;23.85
73453;BME280;61687;56.232;43.854;2023-06-26T10:33:59;100590.88;;;33.99;21.78
73453;BME280;61687;56.232;43.854;2023-06-26T10:36:30;100590.28;;;34.73;19.62
73453;BME280;61687;56.232;43.854;2023-06-26T10:38:59;100586.59;;;35.28;20.43
73453;BME280;61687;56.232;43.854;2023-06-26T10:41:27;100588.59;;;35.58;20.03
73453;BME280;61687;56.232;43.854;2023-06-26T10:46:26;100588.88;;;31.20;23.60
73453;BME280;61687;56.232;43.854;2023-06-26T10:48:59;100587.16;;;30.06;24.94
73453;BME280;61687;56.232;43.854;2023-06-26T10:51:27;100590.72;;;29.59;26.10
73453;BME280;61687;56.232;43.854;2023-06-26T10:53:57;100592.72;;;29.53;27.03
73453;BME280;61687;56.232;43.854;2023-06-26T10:56:47;100592.22;;;31.85;22.82
73453;BME280;61687;56.232;43.854;2023-06-26T10:59:22;100584.22;;;34.21;21.24
73453;BME280;61687;56.232;43.854;2023-06-26T11:02:04;100583.97;;;36.59;19.45
73453;BME280;61687;56.232;43.854;2023-06-26T11:04:51;100568.75;;;38.49;17.73
73453;BME280;61687;56.232;43.854;2023-06-26T11:07:23;100588.97;;;39.90;17.37
73453;BME280;61687;56.232;43.854;2023-06-26T11:10:08;100586.34;;;40.78;14.35
73453;BME280;61687;56.232;43.854;2023-06-26T11:12:42;100576.09;;;41.24;13.71
73453;BME280;61687;56.232;43.854;2023-06-26T11:15:09;100570.28;;;41.72;13.42
73453;BME280;61687;56.232;43.854;2023-06-26T11:17:36;100573.25;;;42.41;13.17
73453;BME280;61687;56.232;43.854;2023-06-26T11:20:06;100570.78;;;43.15;13.02
73453;BME280;61687;56.232;43.854;2023-06-26T11:22:40;100567.59;;;43.94;12.39
73453;BME280;61687;56.232;43.854;2023-06-26T11:25:07;100560.94;;;44.01;11.26
73453;BME280;61687;56.232;43.854;2023-06-26T11:30:06;100552.34;;;44.21;11.96
73453;BME280;61687;56.232;43.854;2023-06-26T11:32:33;100552.50;;;40.30;13.59
73453;BME280;61687;56.232;43.854;2023-06-26T11:34:59;100545.28;;;37.87;16.03
73453;BME280;61687;56.232;43.854;2023-06-26T11:37:25;100563.13;;;35.41;16.97
73453;BME280;61687;56.232;43.854;2023-06-26T11:39:51;100556.38;;;33.07;19.00
73453;BME280;61687;56.232;43.854;2023-06-26T11:42:18;100552.63;;;32.42;19.76
73453;BME280;61687;56.232;43.854;2023-06-26T11:44:45;100555.28;;;33.81;19.80
73453;BME280;61687;56.232;43.854;2023-06-26T11:47:18;100556.59;;;36.04;17.61
73453;BME280;61687;56.232;43.854;2023-06-26T11:49:46;100551.56;;;38.49;16.21
73453;BME280;61687;56.232;43.854;2023-06-26T11:52:12;100552.84;;;40.65;14.27
73453;BME280;61687;56.232;43.854;2023-06-26T11:54:38;100551.66;;;40.84;13.37
73453;BME280;61687;56.232;43.854;2023-06-26T11:57:04;100551.75;;;41.17;13.70
73453;BME280;61687;56.232;43.854;2023-06-26T11:59:34;100555.72;;;40.42;13.58
73453;BME280;61687;56.232;43.854;2023-06-26T12:02:05;100544.03;;;40.24;13.64
73453;BME280;61687;56.232;43.854;2023-06-26T12:04:31;100544.63;;;40.23;14.18
73453;BME280;61687;56.232;43.854;2023-06-26T12:06:58;100545.03;;;41.22;13.63
73453;BME280;61687;56.232;43.854;2023-06-26T12:09:25;100544.34;;;42.92;12.91
73453;BME280;61687;56.232;43.854;2023-06-26T12:11:53;100540.34;;;44.14;12.67
73453;BME280;61687;56.232;43.854;2023-06-26T12:14:22;100538.44;;;44.66;10.85
73453;BME280;61687;56.232;43.854;2023-06-26T12:16:48;100535.84;;;44.51;11.67
73453;BME280;61687;56.232;43.854;2023-06-26T12:19:14;100539.19;;;42.04;12.22
73453;BME280;61687;56.232;43.854;2023-06-26T12:24:12;100536.41;;;37.77;15.82
73453;BME280;61687;56.232;43.854;2023-06-26T12:26:38;100543.78;;;36.24;16.71
73453;BME280;61687;56.232;43.854;2023-06-26T12:29:04;100544.94;;;35.83;16.36
73453;BME280;61687;56.232;43.854;2023-06-26T12:31:31;100535.50;;;36.40;15.36
73453;BME280;61687;56.232;43.854;2023-06-26T12:33:57;100514.88;;;37.62;15.19
73453;BME280;61687;56.232;43.854;2023-06-26T12:36:23;100520.72;;;39.36;14.63
73453;BME280;61687;56.232;43.854;2023-06-26T12:38:49;100527.97;;;40.44;13.65
73453;BME280;61687;56.232;43.854;2023-06-26T12:41:16;100522.16;;;38.48;13.42
73453;BME280;61687;56.232;43.854;2023-06-26T12:43:42;100518.75;;;38.50;13.35
73453;BME280;61687;56.232;43.854;2023-06-26T12:46:08;100512.78;;;39.74;13.94
73453;BME280;61687;56.232;43.854;2023-06-26T12:48:44;100518.44;;;41.47;13.05
73453;BME280;61687;56.232;43.854;2023-06-26T12:51:13;100527.94;;;40.05;14.49
73453;BME280;61687;56.232;43.854;2023-06-26T12:53:40;100521.97;;;38.25;15.34